createdAt,value
2022-10-26T00:01:10.804Z,10.58
2022-10-26T00:03:38.927Z,10.73
2022-10-26T00:06:06.954Z,10.81
2022-10-26T00:08:33.661Z,10.79
2022-10-26T00:11:00.309Z,10.86
2022-10-26T00:13:27.324Z,10.83
2022-10-26T00:15:54.580Z,10.71
2022-10-26T00:18:21.733Z,10.58
2022-10-26T00:20:48.451Z,10.47
2022-10-26T00:23:15.115Z,10.44
2022-10-26T00:25:42.077Z,10.41
2022-10-26T00:28:08.683Z,10.42
2022-10-26T00:30:38.894Z,10.43
2022-10-26T00:33:05.589Z,10.41
2022-10-26T00:35:45.070Z,10.36
2022-10-26T00:38:12.983Z,10.46
2022-10-26T00:40:39.670Z,10.41
2022-10-26T00:43:33.141Z,10.44
2022-10-26T00:46:01.865Z,10.40
2022-10-26T00:48:52.352Z,10.42
2022-10-26T00:51:33.572Z,10.49
2022-10-26T00:54:07.347Z,10.48
2022-10-26T00:56:34.777Z,10.37
2022-10-26T00:59:04.688Z,10.40
2022-10-26T01:01:33.716Z,10.41
2022-10-26T01:04:00.903Z,10.44
2022-10-26T01:06:30.150Z,10.50
2022-10-26T01:08:56.846Z,10.51
2022-10-26T01:11:23.840Z,10.61
2022-10-26T01:13:52.587Z,10.52
2022-10-26T01:16:31.434Z,10.53
2022-10-26T01:19:10.210Z,10.51
2022-10-26T01:21:55.077Z,10.56
2022-10-26T01:25:00.892Z,10.61
2022-10-26T01:27:40.615Z,10.61
2022-10-26T01:30:19.258Z,10.68
2022-10-26T01:33:13.257Z,10.72
2022-10-26T01:36:02.814Z,10.75
2022-10-26T01:38:51.071Z,10.79
2022-10-26T01:41:32.808Z,10.80
2022-10-26T01:44:04.838Z,10.84
2022-10-26T01:46:38.268Z,10.97
2022-10-26T01:49:11.302Z,10.99
2022-10-26T01:51:44.107Z,11.10
2022-10-26T01:54:11.216Z,11.08
2022-10-26T01:56:44.605Z,11.04
2022-10-26T01:59:39.763Z,11.04
2022-10-26T02:02:28.895Z,10.94
2022-10-26T02:05:16.816Z,10.74
2022-10-26T02:08:10.517Z,10.73
2022-10-26T02:10:40.163Z,10.77
2022-10-26T02:13:33.682Z,10.61
2022-10-26T02:16:09.247Z,10.44
2022-10-26T02:18:53.235Z,10.23
2022-10-26T02:21:25.784Z,10.27
2022-10-26T02:23:56.099Z,10.22
2022-10-26T02:26:26.665Z,10.23
2022-10-26T02:28:56.275Z,10.36
2022-10-26T02:31:25.639Z,10.40
2022-10-26T02:33:55.463Z,10.48
2022-10-26T02:36:26.677Z,10.52
2022-10-26T02:38:54.439Z,10.54
2022-10-26T02:41:23.272Z,10.66
2022-10-26T02:44:16.935Z,10.69
2022-10-26T02:46:44.688Z,10.68
2022-10-26T02:49:11.622Z,10.71
2022-10-26T02:52:03.186Z,10.60
2022-10-26T02:54:54.313Z,10.64
2022-10-26T02:57:27.811Z,10.61
2022-10-26T02:59:55.993Z,10.54
2022-10-26T03:02:23.392Z,10.49
2022-10-26T03:04:51.056Z,10.49
2022-10-26T03:07:22.333Z,10.57
2022-10-26T03:09:49.113Z,10.53
2022-10-26T03:12:16.322Z,10.58
2022-10-26T03:14:43.160Z,10.68
2022-10-26T03:17:09.850Z,10.70
2022-10-26T03:19:36.516Z,10.71
2022-10-26T03:22:03.160Z,10.72
2022-10-26T03:24:29.844Z,10.73
2022-10-26T03:26:59.577Z,10.74
2022-10-26T03:29:28.809Z,10.65
2022-10-26T03:31:55.478Z,10.61
2022-10-26T03:34:22.295Z,10.67
2022-10-26T03:36:49.015Z,10.75
2022-10-26T03:39:15.764Z,10.74
2022-10-26T03:41:42.508Z,10.72
2022-10-26T03:44:09.246Z,10.72
2022-10-26T03:46:35.986Z,10.71
2022-10-26T03:49:02.698Z,10.65
2022-10-26T03:51:29.354Z,10.53
2022-10-26T03:53:56.056Z,10.51
2022-10-26T03:56:22.749Z,10.56
2022-10-26T03:58:49.419Z,10.49
2022-10-26T04:01:16.111Z,10.45
2022-10-26T04:03:42.819Z,10.52
2022-10-26T04:06:09.460Z,10.55
2022-10-26T04:08:36.096Z,10.50
2022-10-26T04:11:04.607Z,10.49
2022-10-26T04:13:31.827Z,10.45
2022-10-26T04:15:58.525Z,10.47
2022-10-26T04:18:25.264Z,10.44
2022-10-26T04:20:51.954Z,10.50
2022-10-26T04:23:19.919Z,10.52
2022-10-26T04:25:46.844Z,10.53
2022-10-26T04:28:14.463Z,10.61
2022-10-26T04:30:41.151Z,10.65
2022-10-26T04:33:07.914Z,10.64
2022-10-26T04:35:35.420Z,10.84
2022-10-26T04:38:05.003Z,10.81
2022-10-26T04:40:33.713Z,10.86
2022-10-26T04:43:00.529Z,10.74
2022-10-26T04:45:28.768Z,10.82
2022-10-26T04:48:07.413Z,10.97
2022-10-26T04:50:35.011Z,10.85
2022-10-26T04:53:03.933Z,10.80
2022-10-26T04:55:30.668Z,10.74
2022-10-26T04:58:00.271Z,10.77
2022-10-26T05:00:30.205Z,10.62
2022-10-26T05:03:04.707Z,10.56
2022-10-26T05:05:33.082Z,10.56
2022-10-26T05:07:59.796Z,10.56
2022-10-26T05:10:28.415Z,10.59
2022-10-26T05:12:57.110Z,10.47
2022-10-26T05:15:24.119Z,10.36
2022-10-26T05:17:59.346Z,10.33
2022-10-26T05:20:31.279Z,10.33
2022-10-26T05:22:59.257Z,10.41
2022-10-26T05:25:26.514Z,10.36
2022-10-26T05:28:00.713Z,10.35
2022-10-26T05:30:28.667Z,10.39
2022-10-26T05:33:00.153Z,10.37
2022-10-26T05:35:27.620Z,10.38
2022-10-26T05:37:54.405Z,10.37
2022-10-26T05:40:21.446Z,10.37
2022-10-26T05:42:48.643Z,10.35
2022-10-26T05:45:15.533Z,10.30
2022-10-26T05:47:44.252Z,10.33
2022-10-26T05:50:12.493Z,10.35
2022-10-26T05:52:40.697Z,10.38
2022-10-26T05:55:09.520Z,10.45
2022-10-26T05:57:37.272Z,10.41
2022-10-26T06:00:15.085Z,10.47
2022-10-26T06:03:06.006Z,10.49
2022-10-26T06:05:53.678Z,10.45
2022-10-26T06:08:22.399Z,10.47
2022-10-26T06:10:49.890Z,10.49
2022-10-26T06:13:16.925Z,10.50
2022-10-26T06:16:11.411Z,10.52
2022-10-26T06:19:19.531Z,10.49
2022-10-26T06:21:55.098Z,10.62
2022-10-26T06:24:24.743Z,10.65
2022-10-26T06:27:05.683Z,10.65
2022-10-26T06:29:46.094Z,10.69
2022-10-26T06:32:12.867Z,10.72
2022-10-26T06:34:45.409Z,10.69
2022-10-26T06:37:13.203Z,10.78
2022-10-26T06:39:44.613Z,10.69
2022-10-26T06:42:12.341Z,10.81
2022-10-26T06:44:39.403Z,10.84
2022-10-26T06:47:09.846Z,10.88
2022-10-26T06:50:02.763Z,10.93
2022-10-26T06:52:47.348Z,10.97
2022-10-26T06:55:15.826Z,10.99
2022-10-26T06:57:44.266Z,11.13
2022-10-26T07:00:21.871Z,11.21
2022-10-26T07:02:50.173Z,11.34
2022-10-26T07:05:17.324Z,11.40
2022-10-26T07:07:46.405Z,11.51
2022-10-26T07:10:14.968Z,11.65
2022-10-26T07:12:41.659Z,11.76
2022-10-26T07:17:45.973Z,12.06
2022-10-26T07:20:13.460Z,12.11
2022-10-26T07:22:40.833Z,12.14
2022-10-26T07:25:08.148Z,12.21
2022-10-26T07:27:35.459Z,12.27
2022-10-26T07:30:02.571Z,12.27
2022-10-26T07:32:29.764Z,12.31
2022-10-26T07:34:56.783Z,12.35
2022-10-26T07:37:23.495Z,12.39
2022-10-26T07:39:50.174Z,12.40
2022-10-26T07:42:16.853Z,12.45
2022-10-26T07:44:43.524Z,12.52
2022-10-26T07:47:10.182Z,12.59
2022-10-26T07:49:36.836Z,12.66
2022-10-26T07:52:03.764Z,12.75
2022-10-26T07:54:30.483Z,12.94
2022-10-26T07:56:58.088Z,13.00
2022-10-26T07:59:24.915Z,13.06
2022-10-26T08:01:52.280Z,13.15
2022-10-26T08:04:19.072Z,13.40
2022-10-26T08:06:45.790Z,13.61
2022-10-26T08:09:12.822Z,13.64
2022-10-26T08:11:39.450Z,13.60
2022-10-26T08:14:06.150Z,13.67
2022-10-26T08:16:34.848Z,13.83
2022-10-26T08:19:01.577Z,13.99
2022-10-26T08:21:39.254Z,14.05
2022-10-26T08:24:07.073Z,14.08
2022-10-26T08:26:33.810Z,14.11
2022-10-26T08:29:00.477Z,14.28
2022-10-26T08:31:27.174Z,14.32
2022-10-26T08:33:53.826Z,14.32
2022-10-26T08:36:24.653Z,14.34
2022-10-26T08:38:52.734Z,14.30
2022-10-26T08:41:33.870Z,14.31
2022-10-26T08:44:08.270Z,14.35
2022-10-26T08:46:41.541Z,14.29
2022-10-26T08:49:14.259Z,14.35
2022-10-26T08:51:42.751Z,14.36
2022-10-26T08:54:17.281Z,14.44
2022-10-26T08:56:52.042Z,14.44
2022-10-26T08:59:37.162Z,14.54
2022-10-26T09:02:04.372Z,14.53
2022-10-26T09:04:34.118Z,14.55
2022-10-26T09:07:19.809Z,14.61
2022-10-26T09:09:52.347Z,14.62
2022-10-26T09:12:39.341Z,14.61
2022-10-26T09:15:23.408Z,14.55
2022-10-26T09:17:58.477Z,14.50
2022-10-26T09:20:31.034Z,14.45
2022-10-26T09:23:15.134Z,14.38
2022-10-26T09:25:42.087Z,14.37
2022-10-26T09:28:16.973Z,14.38
2022-10-26T09:30:47.684Z,14.37
2022-10-26T09:33:22.404Z,14.35
2022-10-26T09:35:51.712Z,14.45
2022-10-26T09:38:43.149Z,14.49
2022-10-26T09:41:29.610Z,14.57
2022-10-26T09:44:04.859Z,14.69
2022-10-26T09:46:40.687Z,14.79
2022-10-26T09:49:11.187Z,14.90
2022-10-26T09:51:42.458Z,14.96
2022-10-26T09:54:18.487Z,15.02
2022-10-26T09:56:50.110Z,15.08
2022-10-26T09:59:21.320Z,15.24
2022-10-26T10:01:48.042Z,15.39
2022-10-26T10:04:16.827Z,15.50
2022-10-26T10:06:45.367Z,15.47
2022-10-26T10:09:19.281Z,15.57
2022-10-26T10:11:55.134Z,15.62
2022-10-26T10:14:29.218Z,15.66
2022-10-26T10:17:01.882Z,15.69
2022-10-26T10:19:36.744Z,15.75
2022-10-26T10:22:18.983Z,15.80
2022-10-26T10:24:57.285Z,15.84
2022-10-26T10:27:24.985Z,16.03
2022-10-26T10:29:59.703Z,16.15
2022-10-26T10:32:35.522Z,16.22
2022-10-26T10:35:23.767Z,16.50
2022-10-26T10:37:51.728Z,16.66
2022-10-26T10:40:25.384Z,16.63
2022-10-26T10:42:55.563Z,16.70
2022-10-26T10:45:22.201Z,16.78
2022-10-26T10:48:07.685Z,16.81
2022-10-26T10:50:36.491Z,16.91
2022-10-26T10:53:36.094Z,17.39
2022-10-26T10:56:15.043Z,17.62
2022-10-26T10:59:15.391Z,18.38
2022-10-26T11:01:50.732Z,18.13
2022-10-26T11:05:01.413Z,17.99
2022-10-26T11:07:30.934Z,18.08
2022-10-26T11:10:04.459Z,17.84
2022-10-26T11:12:37.614Z,17.78
2022-10-26T11:15:15.187Z,18.06
2022-10-26T11:18:20.307Z,18.91
2022-10-26T11:21:04.810Z,19.44
2022-10-26T11:23:37.900Z,19.93
2022-10-26T11:26:14.976Z,20.33
2022-10-26T11:28:45.434Z,20.62
2022-10-26T11:31:18.726Z,20.85
2022-10-26T11:36:27.650Z,21.32
2022-10-26T11:39:06.542Z,21.27
2022-10-26T11:41:43.373Z,21.42
2022-10-26T11:44:26.210Z,21.47
2022-10-26T11:47:05.020Z,21.38
2022-10-26T11:49:46.936Z,21.10
2022-10-26T11:52:18.235Z,21.10
2022-10-26T11:54:52.304Z,21.28
2022-10-26T11:57:21.248Z,21.55
2022-10-26T11:59:55.122Z,21.59
2022-10-26T12:02:23.763Z,21.70
2022-10-26T12:05:06.186Z,21.74
2022-10-26T12:07:38.048Z,21.72
2022-10-26T12:10:23.787Z,21.82
2022-10-26T12:12:56.113Z,21.95
2022-10-26T12:15:40.291Z,22.12
2022-10-26T12:18:53.927Z,21.90
2022-10-26T12:21:19.884Z,21.86
2022-10-26T12:24:01.684Z,22.02
2022-10-26T12:26:28.223Z,21.73
2022-10-26T12:29:05.057Z,21.71
2022-10-26T12:31:37.810Z,21.95
2022-10-26T12:34:15.511Z,22.05
2022-10-26T12:36:57.528Z,21.79
2022-10-26T12:39:37.674Z,21.87
2022-10-26T12:42:10.642Z,21.61
2022-10-26T12:44:48.449Z,21.10
2022-10-26T12:47:30.367Z,20.51
2022-10-26T12:50:06.153Z,20.34
2022-10-26T12:52:41.984Z,20.02
2022-10-26T12:55:45.377Z,19.82
2022-10-26T12:58:39.964Z,19.73
2022-10-26T13:01:06.728Z,19.76
2022-10-26T13:03:54.069Z,19.71
2022-10-26T13:06:45.106Z,19.61
2022-10-26T13:09:21.138Z,19.46
2022-10-26T13:11:55.411Z,19.40
2022-10-26T13:14:26.390Z,19.36
2022-10-26T13:16:53.735Z,19.29
2022-10-26T13:19:44.502Z,19.37
2022-10-26T13:22:30.098Z,19.51
2022-10-26T13:25:05.930Z,19.62
2022-10-26T13:27:32.533Z,19.64
2022-10-26T13:30:05.310Z,19.82
2022-10-26T13:32:48.375Z,19.79
2022-10-26T13:35:16.357Z,19.67
2022-10-26T13:37:49.224Z,19.54
2022-10-26T13:40:27.678Z,19.49
2022-10-26T13:42:56.942Z,19.38
2022-10-26T13:45:31.660Z,19.33
2022-10-26T13:48:11.957Z,19.25
2022-10-26T13:50:51.682Z,19.24
2022-10-26T13:53:43.253Z,19.21
2022-10-26T13:56:22.083Z,19.05
2022-10-26T13:59:03.649Z,18.95
2022-10-26T14:01:30.967Z,18.79
2022-10-26T14:03:58.653Z,18.73
2022-10-26T14:06:38.937Z,18.63
2022-10-26T14:09:16.847Z,18.63
2022-10-26T14:11:46.908Z,18.59
2022-10-26T14:14:19.016Z,18.64
2022-10-26T14:16:47.108Z,18.62
2022-10-26T14:19:21.484Z,18.68
2022-10-26T14:21:50.708Z,18.98
2022-10-26T14:24:31.467Z,19.24
2022-10-26T14:27:22.009Z,19.55
2022-10-26T14:30:09.853Z,19.65
2022-10-26T14:32:37.141Z,19.75
2022-10-26T14:35:04.071Z,19.74
2022-10-26T14:38:06.233Z,19.80
2022-10-26T14:40:35.750Z,19.80
2022-10-26T14:43:05.651Z,19.80
2022-10-26T14:45:54.364Z,19.82
2022-10-26T14:48:31.330Z,19.88
2022-10-26T14:51:18.605Z,19.84
2022-10-26T14:53:51.016Z,19.72
2022-10-26T14:56:36.047Z,19.61
2022-10-26T14:59:23.094Z,19.45
2022-10-26T15:01:55.830Z,19.35
2022-10-26T15:05:02.948Z,19.17
2022-10-26T15:07:36.590Z,19.07
2022-10-26T15:10:03.879Z,18.92
2022-10-26T15:12:33.897Z,18.88
2022-10-26T15:15:18.689Z,18.75
2022-10-26T15:17:54.705Z,18.57
2022-10-26T15:20:24.569Z,18.37
2022-10-26T15:22:54.577Z,18.21
2022-10-26T15:25:33.518Z,18.09
2022-10-26T15:28:31.016Z,17.96
2022-10-26T15:31:01.386Z,17.90
2022-10-26T15:33:28.725Z,17.83
2022-10-26T15:36:19.539Z,17.70
2022-10-26T15:38:48.229Z,17.58
2022-10-26T15:41:18.913Z,17.51
2022-10-26T15:43:50.146Z,17.41
2022-10-26T15:46:17.345Z,17.30
2022-10-26T15:51:15.445Z,17.16
2022-10-26T15:53:42.152Z,17.09
2022-10-26T15:56:17.913Z,17.04
2022-10-26T15:58:45.154Z,16.92
2022-10-26T16:01:23.610Z,16.86
2022-10-26T16:03:51.779Z,16.74
2022-10-26T16:06:29.050Z,16.69
2022-10-26T16:08:58.309Z,16.62
2022-10-26T16:11:25.139Z,16.49
2022-10-26T16:13:51.904Z,16.42
2022-10-26T16:16:19.945Z,16.41
2022-10-26T16:18:48.960Z,16.36
2022-10-26T16:21:18.636Z,16.24
2022-10-26T16:23:53.620Z,16.26
2022-10-26T16:26:21.642Z,16.15
2022-10-26T16:28:49.157Z,16.06
2022-10-26T16:31:18.829Z,15.96
2022-10-26T16:33:45.633Z,15.89
2022-10-26T16:36:13.354Z,15.77
2022-10-26T16:38:40.210Z,15.73
2022-10-26T16:41:14.087Z,15.78
2022-10-26T16:43:42.897Z,15.79
2022-10-26T16:46:12.340Z,15.80
2022-10-26T16:48:41.029Z,15.76
2022-10-26T16:51:13.677Z,15.70
2022-10-26T16:53:41.229Z,15.61
2022-10-26T16:56:11.451Z,15.59
2022-10-26T16:58:38.694Z,15.52
2022-10-26T17:01:07.025Z,15.48
2022-10-26T17:03:34.176Z,15.43
2022-10-26T17:06:06.665Z,15.37
2022-10-26T17:08:35.143Z,15.36
2022-10-26T17:11:07.356Z,15.24
2022-10-26T17:13:34.354Z,15.03
2022-10-26T17:16:02.611Z,14.86
2022-10-26T17:18:29.622Z,14.74
2022-10-26T17:20:56.329Z,14.58
2022-10-26T17:23:23.562Z,14.54
2022-10-26T17:25:50.238Z,14.44
2022-10-26T17:28:17.291Z,14.44
2022-10-26T17:30:44.782Z,14.37
2022-10-26T17:33:12.300Z,14.39
2022-10-26T17:35:38.971Z,14.41
2022-10-26T17:38:05.743Z,14.46
2022-10-26T17:40:32.978Z,14.40
2022-10-26T17:43:00.287Z,14.30
2022-10-26T17:45:27.130Z,14.31
2022-10-26T17:47:54.074Z,14.24
2022-10-26T17:50:21.036Z,14.23
2022-10-26T17:52:47.794Z,14.22
2022-10-26T17:55:14.551Z,14.10
2022-10-26T17:57:41.686Z,14.07
2022-10-26T18:00:09.017Z,14.08
2022-10-26T18:02:41.659Z,14.10
2022-10-26T18:05:08.804Z,14.04
2022-10-26T18:07:35.549Z,14.06
2022-10-26T18:10:13.821Z,13.96
2022-10-26T18:12:49.215Z,13.84
2022-10-26T18:15:16.273Z,13.79
2022-10-26T18:17:43.828Z,13.70
2022-10-26T18:20:11.135Z,13.67
2022-10-26T18:22:37.830Z,13.62
2022-10-26T18:25:04.757Z,13.56
2022-10-26T18:27:31.451Z,13.51
2022-10-26T18:29:58.100Z,13.44
2022-10-26T18:32:24.818Z,13.42
2022-10-26T18:34:51.640Z,13.22
2022-10-26T18:37:18.338Z,13.27
2022-10-26T18:39:44.991Z,13.20
2022-10-26T18:42:11.683Z,13.14
2022-10-26T18:44:38.322Z,13.15
2022-10-26T18:47:05.137Z,13.02
2022-10-26T18:49:31.950Z,12.98
2022-10-26T18:51:59.283Z,12.93
2022-10-26T18:54:28.277Z,12.87
2022-10-26T18:56:57.665Z,12.81
2022-10-26T18:59:24.371Z,12.75
2022-10-26T19:01:51.254Z,12.74
2022-10-26T19:04:18.098Z,12.67
2022-10-26T19:06:47.482Z,12.71
2022-10-26T19:09:19.322Z,12.69
2022-10-26T19:11:46.293Z,12.60
2022-10-26T19:14:13.810Z,12.59
2022-10-26T19:16:45.841Z,12.64
2022-10-26T19:19:15.663Z,12.67
2022-10-26T19:21:42.456Z,12.68
2022-10-26T19:24:20.753Z,12.60
2022-10-26T19:26:48.874Z,12.60
2022-10-26T19:29:16.873Z,12.48
2022-10-26T19:31:45.321Z,12.40
2022-10-26T19:34:13.628Z,12.45
2022-10-26T19:36:44.864Z,12.53
2022-10-26T19:39:13.515Z,12.55
2022-10-26T19:41:40.616Z,12.57
2022-10-26T19:44:08.028Z,12.47
2022-10-26T19:46:34.994Z,12.51
2022-10-26T19:49:02.335Z,12.46
2022-10-26T19:51:31.148Z,12.41
2022-10-26T19:54:03.133Z,12.32
2022-10-26T19:56:31.239Z,12.34
2022-10-26T19:58:58.233Z,12.30
2022-10-26T20:01:25.253Z,12.27
2022-10-26T20:03:52.489Z,12.34
2022-10-26T20:06:19.273Z,12.30
2022-10-26T20:08:47.984Z,12.28
2022-10-26T20:11:16.796Z,12.32
2022-10-26T20:13:45.231Z,12.41
2022-10-26T20:16:13.055Z,12.38
2022-10-26T20:18:44.081Z,12.34
2022-10-26T20:21:15.089Z,12.27
2022-10-26T20:23:42.810Z,12.27
2022-10-26T20:26:11.787Z,12.27
2022-10-26T20:28:44.657Z,12.24
2022-10-26T20:31:11.418Z,12.12
2022-10-26T20:33:38.094Z,12.15
2022-10-26T20:36:04.979Z,12.09
2022-10-26T20:38:32.049Z,12.04
2022-10-26T20:40:59.602Z,12.09
2022-10-26T20:43:27.836Z,12.07
2022-10-26T20:45:56.288Z,12.06
2022-10-26T20:48:24.356Z,12.07
2022-10-26T20:51:02.906Z,12.11
2022-10-26T20:53:36.046Z,12.04
2022-10-26T20:56:07.487Z,12.09
2022-10-26T20:58:43.421Z,12.04
2022-10-26T21:01:23.753Z,12.04
2022-10-26T21:03:52.255Z,12.05
2022-10-26T21:06:19.483Z,11.98
2022-10-26T21:08:49.466Z,11.95
2022-10-26T21:11:17.713Z,11.96
2022-10-26T21:13:45.882Z,11.95
2022-10-26T21:16:13.932Z,11.99
2022-10-26T21:18:40.680Z,11.99
2022-10-26T21:21:07.404Z,11.98
2022-10-26T21:23:37.391Z,11.89
2022-10-26T21:26:05.050Z,11.77
2022-10-26T21:28:44.016Z,11.74
2022-10-26T21:31:12.781Z,11.73
2022-10-26T21:33:40.224Z,11.79
2022-10-26T21:36:09.914Z,11.87
2022-10-26T21:38:36.868Z,11.89
2022-10-26T21:41:18.382Z,11.92
2022-10-26T21:43:47.959Z,11.93
2022-10-26T21:46:15.863Z,11.94
2022-10-26T21:48:42.844Z,11.93
2022-10-26T21:51:15.212Z,12.06
2022-10-26T21:53:42.052Z,12.17
2022-10-26T21:56:15.094Z,12.27
2022-10-26T21:58:42.269Z,12.22
2022-10-26T22:01:13.333Z,12.06
2022-10-26T22:03:41.646Z,11.81
2022-10-26T22:06:13.472Z,11.71
2022-10-26T22:08:40.810Z,11.59
2022-10-26T22:11:13.023Z,11.56
2022-10-26T22:13:42.440Z,11.38
2022-10-26T22:16:14.353Z,11.21
2022-10-26T22:18:44.726Z,11.08
2022-10-26T22:21:13.214Z,11.03
2022-10-26T22:23:41.595Z,10.93
2022-10-26T22:26:11.584Z,10.92
2022-10-26T22:28:42.687Z,10.87
2022-10-26T22:31:13.157Z,10.81
2022-10-26T22:33:41.783Z,10.84
2022-10-26T22:36:14.893Z,10.87
2022-10-26T22:38:42.637Z,10.89
2022-10-26T22:41:11.087Z,10.91
2022-10-26T22:43:38.120Z,10.87
2022-10-26T22:46:17.491Z,10.89
2022-10-26T22:48:47.047Z,10.85
2022-10-26T22:51:21.201Z,10.85
2022-10-26T22:53:53.076Z,10.85
2022-10-26T22:56:20.497Z,10.82
2022-10-26T22:58:49.942Z,10.80
2022-10-26T23:01:19.519Z,10.86
2022-10-26T23:03:46.490Z,10.87
2022-10-26T23:06:15.992Z,10.88
2022-10-26T23:08:44.739Z,10.88
2022-10-26T23:11:16.827Z,10.90
2022-10-26T23:13:44.308Z,10.85
2022-10-26T23:16:14.464Z,10.78
2022-10-26T23:18:41.410Z,10.77
2022-10-26T23:21:10.107Z,10.75
2022-10-26T23:23:36.835Z,10.79
2022-10-26T23:26:12.329Z,10.75
2022-10-26T23:28:40.024Z,10.71
2022-10-26T23:31:07.704Z,10.66
2022-10-26T23:33:35.177Z,10.64
2022-10-26T23:36:01.872Z,10.64
2022-10-26T23:38:28.778Z,10.58
2022-10-26T23:40:58.277Z,10.65
2022-10-26T23:43:26.284Z,10.65
2022-10-26T23:45:54.416Z,10.51
2022-10-26T23:48:21.613Z,10.60
2022-10-26T23:50:50.361Z,10.57
2022-10-26T23:53:20.044Z,10.55
2022-10-26T23:55:48.808Z,10.57
2022-10-26T23:58:17.339Z,10.53
